Time;durP1;ratioP1;P1;durP2;ratioP2;P2;SDS_P1;SDS_P2;PMS_P1;PMS_P2;Temp;Humidity;BMP_temperature;BMP_pressure;BME280_temperature;BME280_humidity;BME280_pressure;Samples;Min_cycle;Max_cycle;Signal;HPM_P1;HPM_P2
2021/06/18 00:00:52;;;;;;;4.45;3.95;;;;;;;;;;5011443;28;20475;-75
2021/06/18 00:03:18;;;;;;;5.30;4.25;;;;;;;;;;5012004;28;20022;-75
2021/06/18 00:05:43;;;;;;;5.80;4.07;;;;;;;;;;5011634;28;20675;-75
2021/06/18 00:08:09;;;;;;;6.40;4.63;;;;;;;;;;5011370;28;20394;-75
2021/06/18 00:10:35;;;;;;;8.35;4.20;;;;;;;;;;5011680;28;20497;-75
2021/06/18 00:13:00;;;;;;;7.13;4.25;;;;;;;;;;5011540;28;20471;-75
2021/06/18 00:15:26;;;;;;;6.18;4.35;;;;;;;;;;5026317;28;20046;-75
2021/06/18 00:17:51;;;;;;;8.07;4.78;;;;;;;;;;5011138;28;20038;-76
2021/06/18 00:20:17;;;;;;;5.28;4.28;;;;;;;;;;5012145;28;20022;-75
2021/06/18 00:22:43;;;;;;;8.45;4.70;;;;;;;;;;5011321;28;20100;-75
2021/06/18 00:25:10;;;;;;;4.70;4.20;;;;;;;;;;5011473;28;20029;-76
2021/06/18 00:27:36;;;;;;;8.00;4.30;;;;;;;;;;5011599;28;20025;-75
2021/06/18 00:30:03;;;;;;;7.68;4.20;;;;;;;;;;5011332;28;20034;-76
2021/06/18 00:32:28;;;;;;;7.63;4.65;;;;;;;;;;5010354;28;20026;-75
2021/06/18 00:34:54;;;;;;;8.52;4.80;;;;;;;;;;5011373;28;20386;-75
2021/06/18 00:37:20;;;;;;;7.43;4.35;;;;;;;;;;5011416;28;20390;-76
2021/06/18 00:39:46;;;;;;;7.10;4.45;;;;;;;;;;5009574;28;20026;-76
2021/06/18 00:42:11;;;;;;;7.45;4.63;;;;;;;;;;5011292;28;20421;-76
2021/06/18 00:44:37;;;;;;;5.07;4.40;;;;;;;;;;5010919;28;20025;-76
2021/06/18 00:47:04;;;;;;;9.32;4.85;;;;;;;;;;5011282;28;20032;-74
2021/06/18 00:49:30;;;;;;;5.50;4.47;;;;;;;;;;5011212;28;20148;-75
2021/06/18 00:51:56;;;;;;;7.45;5.03;;;;;;;;;;5011084;28;20033;-74
2021/06/18 00:54:29;;;;;;;7.60;4.20;;;;;;;;;;5009811;28;20367;-75
2021/06/18 00:56:57;;;;;;;5.93;4.88;;;;;;;;;;5011022;28;20080;-77
2021/06/18 00:59:23;;;;;;;6.78;4.15;;;;;;;;;;5009534;28;20022;-76
2021/06/18 01:01:49;;;;;;;5.97;4.68;;;;;;;;;;5009202;28;20381;-75
2021/06/18 01:04:14;;;;;;;5.32;4.35;;;;;;;;;;5010928;28;20105;-75
2021/06/18 01:06:45;;;;;;;5.32;4.78;;;;;;;;;;5009681;28;20029;-75
2021/06/18 01:09:13;;;;;;;5.35;4.45;;;;;;;;;;5011046;28;20032;-76
2021/06/18 01:11:48;;;;;;;7.97;4.57;;;;;;;;;;5009092;28;20474;-74
2021/06/18 01:14:27;;;;;;;5.32;4.57;;;;;;;;;;5010925;28;20021;-75
2021/06/18 01:17:19;;;;;;;8.23;5.10;;;;;;;;;;5012168;28;20475;-74
2021/06/18 01:19:56;;;;;;;;;;;;;;;;;;5013000;28;20033;-75
2021/06/18 01:22:23;;;;;;;7.75;4.68;;;;;;;;;;5012511;28;19913;-74
2021/06/18 01:25:03;;;;;;;9.05;4.78;;;;;;;;;;5012329;28;20056;-76
2021/06/18 01:27:32;;;;;;;5.95;4.60;;;;;;;;;;5011216;28;20052;-76
2021/06/18 01:30:16;;;;;;;7.85;4.95;;;;;;;;;;5009076;28;20113;-75
2021/06/18 01:32:44;;;;;;;7.15;4.75;;;;;;;;;;5009160;28;20442;-75
2021/06/18 01:35:16;;;;;;;5.55;4.60;;;;;;;;;;5010452;28;20112;-75
2021/06/18 01:37:46;;;;;;;6.82;4.57;;;;;;;;;;5008793;28;20681;-76
2021/06/18 01:40:12;;;;;;;6.45;5.13;;;;;;;;;;5011310;28;20152;-77
2021/06/18 01:42:43;;;;;;;6.35;4.78;;;;;;;;;;5008641;28;20482;-75
2021/06/18 01:45:14;;;;;;;8.93;5.05;;;;;;;;;;5010921;28;20033;-76
2021/06/18 01:47:44;;;;;;;6.07;4.40;;;;;;;;;;5010812;28;20034;-75
2021/06/18 01:50:14;;;;;;;7.15;5.43;;;;;;;;;;5009817;28;20030;-76
2021/06/18 01:52:42;;;;;;;8.07;5.15;;;;;;;;;;5024624;28;20022;-76
2021/06/18 01:55:09;;;;;;;7.13;4.80;;;;;;;;;;5010345;28;20026;-76
2021/06/18 01:57:39;;;;;;;5.53;4.82;;;;;;;;;;5008647;28;20038;-75
2021/06/18 02:00:08;;;;;;;6.80;4.88;;;;;;;;;;5010090;28;20029;-76
2021/06/18 02:02:35;;;;;;;5.78;4.97;;;;;;;;;;5010227;28;20030;-74
2021/06/18 02:05:04;;;;;;;6.38;5.03;;;;;;;;;;5009791;28;20061;-74
2021/06/18 02:07:30;;;;;;;8.70;4.85;;;;;;;;;;5009913;28;20030;-75
2021/06/18 02:10:00;;;;;;;8.45;4.30;;;;;;;;;;5010113;28;20022;-75
2021/06/18 02:12:26;;;;;;;6.57;4.85;;;;;;;;;;5010161;28;20470;-75
2021/06/18 02:14:55;;;;;;;7.65;4.90;;;;;;;;;;5009864;28;20037;-75
2021/06/18 02:17:21;;;;;;;6.85;5.07;;;;;;;;;;5009470;28;20049;-75
2021/06/18 02:19:48;;;;;;;7.18;5.00;;;;;;;;;;5009871;28;20068;-74
2021/06/18 02:22:15;;;;;;;5.50;4.93;;;;;;;;;;5010392;28;20030;-75
2021/06/18 02:24:41;;;;;;;8.90;5.75;;;;;;;;;;5008513;28;20021;-75
2021/06/18 02:27:08;;;;;;;7.32;5.38;;;;;;;;;;5008565;28;20104;-75
2021/06/18 02:29:34;;;;;;;6.22;4.47;;;;;;;;;;5008301;28;20042;-74
2021/06/18 02:32:07;;;;;;;9.32;4.68;;;;;;;;;;5024773;28;20026;-74
2021/06/18 02:34:35;;;;;;;11.93;5.15;;;;;;;;;;5008650;28;20092;-74
2021/06/18 02:37:02;;;;;;;6.88;5.25;;;;;;;;;;5024461;28;20033;-74
2021/06/18 02:39:28;;;;;;;5.72;4.82;;;;;;;;;;5025909;28;20482;-76
2021/06/18 02:41:55;;;;;;;7.40;5.20;;;;;;;;;;5011657;28;20061;-75
2021/06/18 02:44:20;;;;;;;10.65;5.22;;;;;;;;;;5013682;28;20092;-74
2021/06/18 02:46:52;;;;;;;8.75;5.53;;;;;;;;;;5011428;28;20029;-77
2021/06/18 02:49:24;;;;;;;10.20;6.07;;;;;;;;;;5012969;28;20437;-76
2021/06/18 02:51:57;;;;;;;9.52;5.75;;;;;;;;;;5012559;28;20471;-76
2021/06/18 02:54:38;;;;;;;12.55;5.80;;;;;;;;;;5011594;28;20022;-76
2021/06/18 02:57:14;;;;;;;11.10;5.75;;;;;;;;;;5012596;28;20119;-76
2021/06/18 02:59:51;;;;;;;14.18;6.82;;;;;;;;;;5012920;28;20076;-77
2021/06/18 03:02:19;;;;;;;11.30;6.50;;;;;;;;;;5012418;28;20466;-77
2021/06/18 03:04:46;;;;;;;9.73;5.95;;;;;;;;;;5012352;28;20036;-76
2021/06/18 03:07:16;;;;;;;9.38;6.30;;;;;;;;;;5012465;28;20037;-76
2021/06/18 03:09:48;;;;;;;10.57;6.25;;;;;;;;;;5011098;28;20022;-76
2021/06/18 03:12:16;;;;;;;21.25;5.80;;;;;;;;;;5011403;28;20049;-77
2021/06/18 03:14:45;;;;;;;9.10;5.45;;;;;;;;;;5012525;28;20029;-75
2021/06/18 03:17:16;;;;;;;10.25;5.78;;;;;;;;;;5027337;28;20022;-75
2021/06/18 03:19:47;;;;;;;7.07;5.30;;;;;;;;;;5010798;28;20026;-75
2021/06/18 03:22:15;;;;;;;8.50;5.55;;;;;;;;;;5014306;28;20121;-77
2021/06/18 03:24:42;;;;;;;7.60;6.18;;;;;;;;;;5014252;28;20026;-76
2021/06/18 03:27:09;;;;;;;34.97;8.57;;;;;;;;;;5012182;28;20435;-77
2021/06/18 03:29:37;;;;;;;13.18;6.25;;;;;;;;;;5012350;28;20029;-76
2021/06/18 03:32:04;;;;;;;15.00;6.88;;;;;;;;;;5010864;28;20022;-74
2021/06/18 03:34:31;;;;;;;8.48;6.40;;;;;;;;;;5010755;28;20033;-77
2021/06/18 03:36:59;;;;;;;10.30;6.25;;;;;;;;;;5012118;28;20069;-75
2021/06/18 03:39:25;;;;;;;8.80;6.20;;;;;;;;;;5010631;28;20566;-76
2021/06/18 03:41:51;;;;;;;11.48;5.38;;;;;;;;;;5010066;28;20394;-76
2021/06/18 03:44:19;;;;;;;9.43;6.15;;;;;;;;;;5011864;28;20025;-76
2021/06/18 03:46:46;;;;;;;5.90;5.07;;;;;;;;;;5011472;28;20028;-76
2021/06/18 03:49:12;;;;;;;6.22;5.63;;;;;;;;;;5027072;28;20040;-75
2021/06/18 03:51:38;;;;;;;10.13;5.50;;;;;;;;;;5009775;28;20353;-76
2021/06/18 03:54:05;;;;;;;9.15;5.80;;;;;;;;;;5011481;28;20030;-76
2021/06/18 03:56:31;;;;;;;13.38;6.10;;;;;;;;;;5011895;28;20054;-78
2021/06/18 03:58:58;;;;;;;6.88;5.90;;;;;;;;;;5010294;28;20021;-76
2021/06/18 04:01:26;;;;;;;8.90;6.10;;;;;;;;;;5010308;28;20084;-75
2021/06/18 04:03:53;;;;;;;7.38;5.82;;;;;;;;;;5027161;28;20109;-78
2021/06/18 04:06:20;;;;;;;9.63;6.85;;;;;;;;;;5027355;28;20106;-76
2021/06/18 04:08:47;;;;;;;7.60;6.07;;;;;;;;;;5011458;28;20022;-76
2021/06/18 04:11:13;;;;;;;6.43;5.43;;;;;;;;;;5010185;28;20013;-76
2021/06/18 04:13:41;;;;;;;13.25;6.03;;;;;;;;;;5011497;28;20029;-77
2021/06/18 04:16:11;;;;;;;8.93;5.63;;;;;;;;;;5009587;28;20026;-77
2021/06/18 04:18:42;;;;;;;8.63;6.30;;;;;;;;;;5009965;28;20022;-76
2021/06/18 04:21:12;;;;;;;6.47;5.72;;;;;;;;;;5009492;28;20109;-77
2021/06/18 04:23:37;;;;;;;14.48;6.30;;;;;;;;;;5009689;28;20041;-77
2021/06/18 04:26:03;;;;;;;9.32;6.13;;;;;;;;;;5010833;28;20034;-76
2021/06/18 04:28:29;;;;;;;8.27;6.40;;;;;;;;;;5011148;28;20033;-77
2021/06/18 04:30:56;;;;;;;11.88;6.40;;;;;;;;;;5010421;28;20030;-77
2021/06/18 04:33:22;;;;;;;12.38;6.45;;;;;;;;;;5026855;28;20026;-77
2021/06/18 04:35:48;;;;;;;10.57;6.53;;;;;;;;;;5010610;28;20029;-76
2021/06/18 04:38:13;;;;;;;9.45;6.35;;;;;;;;;;5009726;28;20056;-76
2021/06/18 04:40:39;;;;;;;6.75;6.10;;;;;;;;;;5010537;28;20060;-77
2021/06/18 04:43:05;;;;;;;8.95;6.22;;;;;;;;;;5010523;28;20042;-76
2021/06/18 04:45:30;;;;;;;14.95;6.40;;;;;;;;;;5010490;28;20466;-75
2021/06/18 04:47:57;;;;;;;10.85;6.32;;;;;;;;;;5009193;28;20037;-77
2021/06/18 04:50:23;;;;;;;15.35;7.53;;;;;;;;;;5011048;28;20037;-77
2021/06/18 04:52:49;;;;;;;9.07;5.80;;;;;;;;;;5010645;28;20390;-76
2021/06/18 04:55:17;;;;;;;13.32;5.93;;;;;;;;;;5010943;28;20104;-77
2021/06/18 04:57:47;;;;;;;8.50;6.63;;;;;;;;;;5009219;28;20030;-75
2021/06/18 05:00:14;;;;;;;10.30;6.22;;;;;;;;;;5010445;28;20389;-76
2021/06/18 05:02:40;;;;;;;11.43;5.90;;;;;;;;;;5024929;28;20465;-76
2021/06/18 05:05:06;;;;;;;14.75;6.18;;;;;;;;;;5010232;28;20188;-78
2021/06/18 05:07:31;;;;;;;11.07;6.05;;;;;;;;;;5011595;28;20030;-76
2021/06/18 05:09:57;;;;;;;9.77;5.72;;;;;;;;;;5008757;28;20471;-75
2021/06/18 05:12:22;;;;;;;7.45;5.85;;;;;;;;;;5006092;28;20041;-73
2021/06/18 05:14:49;;;;;;;8.93;6.25;;;;;;;;;;5003995;28;20480;-75
2021/06/18 05:17:14;;;;;;;10.82;4.72;;;;;;;;;;5009854;28;20026;-74
2021/06/18 05:19:40;;;;;;;14.73;6.28;;;;;;;;;;5003251;28;20104;-74
2021/06/18 05:22:06;;;;;;;13.60;6.20;;;;;;;;;;5006136;28;20024;-75
2021/06/18 05:24:31;;;;;;;6.63;5.53;;;;;;;;;;5008581;28;20038;-74
2021/06/18 05:26:57;;;;;;;10.68;5.10;;;;;;;;;;5008717;28;20105;-75
2021/06/18 05:29:22;;;;;;;6.50;5.72;;;;;;;;;;5009229;28;20466;-74
2021/06/18 05:31:49;;;;;;;12.00;5.72;;;;;;;;;;4994073;28;20038;-76
2021/06/18 05:34:15;;;;;;;16.10;5.45;;;;;;;;;;5007307;28;20037;-74
2021/06/18 05:36:44;;;;;;;10.07;5.50;;;;;;;;;;5008192;28;20040;-73
2021/06/18 05:39:11;;;;;;;7.03;5.22;;;;;;;;;;5023576;28;20061;-75
2021/06/18 05:41:37;;;;;;;8.73;7.45;;;;;;;;;;5007502;28;20553;-73
2021/06/18 05:44:03;;;;;;;10.13;5.70;;;;;;;;;;5010056;28;20076;-75
2021/06/18 05:46:28;;;;;;;14.40;5.90;;;;;;;;;;5007615;28;20028;-73
2021/06/18 05:48:54;;;;;;;15.10;6.03;;;;;;;;;;5009234;28;20022;-74
2021/06/18 05:51:19;;;;;;;8.25;5.43;;;;;;;;;;5007456;28;20026;-75
2021/06/18 05:53:45;;;;;;;12.00;4.95;;;;;;;;;;5009018;28;20033;-73
2021/06/18 05:56:11;;;;;;;14.43;6.93;;;;;;;;;;4992096;28;20042;-75
2021/06/18 05:58:37;;;;;;;9.43;5.43;;;;;;;;;;5004703;28;20442;-75
2021/06/18 06:01:02;;;;;;;13.40;6.00;;;;;;;;;;5003815;28;20034;-75
2021/06/18 06:03:28;;;;;;;16.20;6.20;;;;;;;;;;5003143;28;20103;-75
2021/06/18 06:05:53;;;;;;;7.68;5.38;;;;;;;;;;5006851;28;20032;-75
2021/06/18 06:08:20;;;;;;;18.27;6.75;;;;;;;;;;4999723;28;20077;-75
2021/06/18 06:10:49;;;;;;;10.40;6.40;;;;;;;;;;5007511;28;20026;-74
2021/06/18 06:13:16;;;;;;;13.60;6.05;;;;;;;;;;5006071;28;20038;-76
2021/06/18 06:15:42;;;;;;;15.90;6.82;;;;;;;;;;5024738;28;20046;-75
2021/06/18 06:18:08;;;;;;;11.40;5.85;;;;;;;;;;5003181;28;20033;-76
2021/06/18 06:20:33;;;;;;;12.93;6.40;;;;;;;;;;5008673;28;20041;-75
2021/06/18 06:22:59;;;;;;;10.35;6.05;;;;;;;;;;5010838;28;20246;-76
2021/06/18 06:25:24;;;;;;;14.48;6.75;;;;;;;;;;5003632;28;20053;-76
2021/06/18 06:27:50;;;;;;;11.43;6.13;;;;;;;;;;5010185;28;20600;-76
2021/06/18 06:30:16;;;;;;;13.18;6.60;;;;;;;;;;5012343;28;20037;-75
2021/06/18 06:32:42;;;;;;;11.40;6.85;;;;;;;;;;5003950;28;20033;-76
2021/06/18 06:35:08;;;;;;;17.65;6.90;;;;;;;;;;5010422;28;20018;-75
2021/06/18 06:37:33;;;;;;;12.52;5.80;;;;;;;;;;5005149;28;20029;-76
2021/06/18 06:39:59;;;;;;;13.18;8.75;;;;;;;;;;5010680;28;20026;-76
2021/06/18 06:42:26;;;;;;;7.97;4.68;;;;;;;;;;5014689;28;20069;-76
2021/06/18 06:44:51;;;;;;;9.45;5.63;;;;;;;;;;5010653;28;20891;-76
2021/06/18 06:47:17;;;;;;;17.38;5.70;;;;;;;;;;5010574;28;20042;-75
2021/06/18 06:49:44;;;;;;;9.98;5.38;;;;;;;;;;5007878;28;20034;-76
2021/06/18 06:52:09;;;;;;;15.82;5.40;;;;;;;;;;5006540;28;20060;-76
2021/06/18 06:54:36;;;;;;;8.80;4.38;;;;;;;;;;5004660;28;20450;-76
2021/06/18 06:57:02;;;;;;;7.20;4.68;;;;;;;;;;5010447;28;20131;-76
2021/06/18 06:59:28;;;;;;;9.82;5.20;;;;;;;;;;5005879;28;20483;-75
2021/06/18 07:01:53;;;;;;;15.77;5.45;;;;;;;;;;4996835;28;20054;-76
2021/06/18 07:04:19;;;;;;;9.30;4.80;;;;;;;;;;5006646;28;20488;-75
2021/06/18 07:06:45;;;;;;;14.63;5.38;;;;;;;;;;5022200;28;20049;-76
2021/06/18 07:09:11;;;;;;;13.60;5.95;;;;;;;;;;5007344;28;20029;-76
2021/06/18 07:11:37;;;;;;;6.05;4.43;;;;;;;;;;5007763;28;20029;-76
2021/06/18 07:14:02;;;;;;;7.53;4.97;;;;;;;;;;5009246;28;20820;-77
2021/06/18 07:16:28;;;;;;;10.27;4.93;;;;;;;;;;5007472;28;20022;-74
2021/06/18 07:18:55;;;;;;;10.07;5.47;;;;;;;;;;5010179;28;20045;-74
2021/06/18 07:21:20;;;;;;;7.40;5.28;;;;;;;;;;5022661;28;20049;-75
2021/06/18 07:23:46;;;;;;;13.63;5.10;;;;;;;;;;5003513;28;20383;-75
2021/06/18 07:26:11;;;;;;;8.48;5.13;;;;;;;;;;5007219;28;20117;-75
2021/06/18 07:28:38;;;;;;;6.50;3.90;;;;;;;;;;5010530;28;20014;-75
2021/06/18 07:31:04;;;;;;;7.57;4.53;;;;;;;;;;5004590;28;20029;-75
2021/06/18 07:33:32;;;;;;;8.05;5.50;;;;;;;;;;5010788;28;20091;-75
2021/06/18 07:35:57;;;;;;;13.68;6.22;;;;;;;;;;5007856;28;20455;-76
2021/06/18 07:38:23;;;;;;;6.45;4.50;;;;;;;;;;5009133;28;20105;-76
2021/06/18 07:40:48;;;;;;;11.43;4.75;;;;;;;;;;5003409;28;20848;-75
2021/06/18 07:43:14;;;;;;;12.40;5.57;;;;;;;;;;5009675;28;20037;-75
2021/06/18 07:45:41;;;;;;;14.75;5.38;;;;;;;;;;5024788;28;20037;-75
2021/06/18 07:48:09;;;;;;;11.40;5.90;;;;;;;;;;5010697;28;20366;-75
2021/06/18 07:50:38;;;;;;;9.93;6.63;;;;;;;;;;5010069;28;20398;-76
2021/06/18 07:53:10;;;;;;;8.45;4.85;;;;;;;;;;5009242;28;20060;-74
2021/06/18 07:55:35;;;;;;;17.20;6.22;;;;;;;;;;4995469;28;20022;-75
2021/06/18 07:58:01;;;;;;;11.27;5.13;;;;;;;;;;5005369;28;20026;-75
2021/06/18 08:00:26;;;;;;;7.22;4.38;;;;;;;;;;5009501;28;20550;-76
2021/06/18 08:02:53;;;;;;;7.10;4.28;;;;;;;;;;5005219;28;20178;-76
2021/06/18 08:05:19;;;;;;;8.65;4.20;;;;;;;;;;5007347;28;20066;-75
2021/06/18 08:07:46;;;;;;;6.63;3.90;;;;;;;;;;5011156;28;20113;-76
2021/06/18 08:10:15;;;;;;;12.55;5.38;;;;;;;;;;5010254;28;20060;-75
2021/06/18 08:12:44;;;;;;;15.07;4.85;;;;;;;;;;5007468;28;20040;-75
2021/06/18 08:15:11;;;;;;;13.85;5.32;;;;;;;;;;4991561;28;20037;-75
2021/06/18 08:17:37;;;;;;;15.90;4.45;;;;;;;;;;5009038;28;20032;-75
2021/06/18 08:20:04;;;;;;;5.70;4.20;;;;;;;;;;5007737;28;20108;-75
2021/06/18 08:22:30;;;;;;;5.72;4.45;;;;;;;;;;5007791;28;20021;-76
2021/06/18 08:25:00;;;;;;;8.60;4.53;;;;;;;;;;5006194;28;20501;-76
2021/06/18 08:27:26;;;;;;;9.23;4.80;;;;;;;;;;5002223;28;20033;-75
2021/06/18 08:29:52;;;;;;;8.75;5.30;;;;;;;;;;5009999;28;20741;-75
2021/06/18 08:32:19;;;;;;;6.85;4.00;;;;;;;;;;5007787;28;20075;-75
2021/06/18 08:34:44;;;;;;;7.30;4.72;;;;;;;;;;5007745;28;20030;-75
2021/06/18 08:37:10;;;;;;;14.93;5.00;;;;;;;;;;5002983;28;20026;-75
2021/06/18 08:39:37;;;;;;;8.52;4.75;;;;;;;;;;5004425;28;20046;-76
2021/06/18 08:42:04;;;;;;;10.43;4.35;;;;;;;;;;5007700;28;20052;-74
2021/06/18 08:44:29;;;;;;;7.53;4.32;;;;;;;;;;5008062;28;20041;-77
2021/06/18 08:46:55;;;;;;;13.48;4.63;;;;;;;;;;5005332;28;20038;-75
2021/06/18 08:49:23;;;;;;;6.38;4.50;;;;;;;;;;5022487;28;20118;-76
2021/06/18 08:51:48;;;;;;;9.07;4.35;;;;;;;;;;5016386;28;20037;-76
2021/06/18 08:54:15;;;;;;;10.38;4.43;;;;;;;;;;5003850;28;20030;-77
2021/06/18 08:56:41;;;;;;;11.77;4.50;;;;;;;;;;5001343;28;20025;-76
2021/06/18 08:59:07;;;;;;;11.02;4.68;;;;;;;;;;5003111;28;20052;-76
2021/06/18 09:01:33;;;;;;;19.35;17.67;;;;;;;;;;4997361;28;20117;-76
2021/06/18 09:04:07;;;;;;;10.00;4.97;;;;;;;;;;5008779;28;20164;-76
2021/06/18 09:06:35;;;;;;;5.65;4.65;;;;;;;;;;5023685;28;20600;-75
2021/06/18 09:09:13;;;;;;;9.15;4.72;;;;;;;;;;5007354;28;20084;-76
2021/06/18 09:11:48;;;;;;;7.90;5.15;;;;;;;;;;5006019;28;20026;-76
2021/06/18 09:14:30;;;;;;;9.23;5.22;;;;;;;;;;5000838;28;20585;-77
2021/06/18 09:17:17;;;;;;;7.75;4.65;;;;;;;;;;4999628;28;20050;-76
2021/06/18 09:19:46;;;;;;;11.68;4.47;;;;;;;;;;5005321;28;20030;-76
2021/06/18 09:22:34;;;;;;;9.27;4.25;;;;;;;;;;5005927;28;20026;-75
2021/06/18 09:25:09;;;;;;;6.38;4.35;;;;;;;;;;5006379;28;20026;-75
2021/06/18 09:27:44;;;;;;;11.55;4.43;;;;;;;;;;5008643;28;20101;-75
2021/06/18 09:30:34;;;;;;;5.95;4.57;;;;;;;;;;5005350;28;20136;-76
2021/06/18 09:33:01;;;;;;;5.87;4.27;;;;;;;;;;5007099;28;20026;-75
2021/06/18 09:35:28;;;;;;;6.70;4.40;;;;;;;;;;5023476;28;20029;-76
2021/06/18 09:37:56;;;;;;;8.73;4.25;;;;;;;;;;5007598;28;20081;-78
2021/06/18 09:40:23;;;;;;;8.38;4.78;;;;;;;;;;5008278;28;20050;-75
2021/06/18 09:42:52;;;;;;;4.72;3.72;;;;;;;;;;5023749;28;20651;-76
2021/06/18 09:45:20;;;;;;;6.10;4.53;;;;;;;;;;5005407;28;20119;-77
2021/06/18 09:47:47;;;;;;;7.32;3.88;;;;;;;;;;5007709;28;20056;-75
2021/06/18 09:50:15;;;;;;;9.93;4.57;;;;;;;;;;5007698;28;20485;-75
2021/06/18 09:52:45;;;;;;;8.60;4.05;;;;;;;;;;5003171;28;20018;-76
2021/06/18 09:55:20;;;;;;;8.43;4.00;;;;;;;;;;5001736;28;20037;-76
2021/06/18 09:57:46;;;;;;;3.72;3.42;;;;;;;;;;5006551;28;20060;-75
2021/06/18 10:00:17;;;;;;;7.93;3.85;;;;;;;;;;5014339;28;20049;-76
2021/06/18 10:02:47;;;;;;;5.75;3.83;;;;;;;;;;5007481;28;20022;-76
2021/06/18 10:05:15;;;;;;;8.27;4.13;;;;;;;;;;5008357;28;20045;-75
2021/06/18 10:07:43;;;;;;;5.72;4.35;;;;;;;;;;5010738;28;20191;-77
2021/06/18 10:10:14;;;;;;;7.15;3.60;;;;;;;;;;5005614;28;20029;-76
2021/06/18 10:12:40;;;;;;;6.47;4.20;;;;;;;;;;5023543;28;20026;-76
2021/06/18 10:15:09;;;;;;;8.30;4.70;;;;;;;;;;4999246;28;20030;-76
2021/06/18 10:17:36;;;;;;;8.50;4.50;;;;;;;;;;5022367;28;20026;-76
2021/06/18 10:20:08;;;;;;;5.93;3.70;;;;;;;;;;5008173;28;20053;-75
2021/06/18 10:22:43;;;;;;;8.75;4.15;;;;;;;;;;5026813;28;20026;-75
2021/06/18 10:25:14;;;;;;;6.50;3.75;;;;;;;;;;5004881;28;20112;-76
2021/06/18 10:27:45;;;;;;;9.10;4.05;;;;;;;;;;5007702;28;20400;-75
2021/06/18 10:30:23;;;;;;;6.15;4.07;;;;;;;;;;5024047;28;20077;-75
2021/06/18 10:32:50;;;;;;;9.07;3.53;;;;;;;;;;5024235;28;20037;-76
2021/06/18 10:36:04;;;;;;;9.70;6.78;;;;;;;;;;4998851;28;20038;-76
2021/06/18 10:38:45;;;;;;;8.63;3.50;;;;;;;;;;5004745;28;20022;-76
2021/06/18 10:41:16;;;;;;;4.50;2.97;;;;;;;;;;5019398;28;20491;-74
2021/06/18 10:43:42;;;;;;;4.88;3.10;;;;;;;;;;5001699;28;20026;-75
2021/06/18 10:46:30;;;;;;;7.45;3.42;;;;;;;;;;5000381;28;20471;-76
2021/06/18 10:48:56;;;;;;;5.53;4.05;;;;;;;;;;5001512;28;20033;-76
2021/06/18 10:51:42;;;;;;;9.25;4.10;;;;;;;;;;5005030;28;20096;-76
2021/06/18 10:54:11;;;;;;;8.63;4.30;;;;;;;;;;4999021;28;20030;-75
2021/06/18 10:56:46;;;;;;;10.65;4.78;;;;;;;;;;5001381;28;20030;-76
2021/06/18 10:59:27;;;;;;;5.95;3.67;;;;;;;;;;4999212;28;20370;-75
2021/06/18 11:01:55;;;;;;;8.60;3.33;;;;;;;;;;4996382;28;20033;-76
2021/06/18 11:04:43;;;;;;;6.07;3.15;;;;;;;;;;5010206;28;20042;-75
2021/06/18 11:07:24;;;;;;;7.13;3.88;;;;;;;;;;5005263;28;20030;-74
2021/06/18 11:09:58;;;;;;;5.35;3.17;;;;;;;;;;5007378;28;20036;-76
2021/06/18 11:12:27;;;;;;;5.45;3.40;;;;;;;;;;5016094;28;20121;-76
2021/06/18 11:14:54;;;;;;;5.43;3.63;;;;;;;;;;5006350;28;20029;-76
2021/06/18 11:17:48;;;;;;;6.68;3.55;;;;;;;;;;5000949;28;20038;-76
2021/06/18 11:20:20;;;;;;;8.30;3.47;;;;;;;;;;5004033;28;20078;-75
2021/06/18 11:23:04;;;;;;;9.48;4.50;;;;;;;;;;5003658;28;20027;-76
2021/06/18 11:25:36;;;;;;;13.57;3.63;;;;;;;;;;5003227;28;20044;-77
2021/06/18 11:28:20;;;;;;;5.38;3.35;;;;;;;;;;5006768;28;20068;-76
2021/06/18 11:31:13;;;;;;;7.50;4.82;;;;;;;;;;5006773;28;20041;-76
2021/06/18 11:33:46;;;;;;;7.45;4.68;;;;;;;;;;5018458;28;20033;-76
2021/06/18 11:36:20;;;;;;;6.13;3.97;;;;;;;;;;5013481;28;20029;-76
2021/06/18 11:39:00;;;;;;;9.38;4.50;;;;;;;;;;5009318;28;20034;-75
2021/06/18 11:41:28;;;;;;;4.72;4.15;;;;;;;;;;5001259;28;20077;-77
2021/06/18 11:43:56;;;;;;;6.45;4.35;;;;;;;;;;5003578;28;20030;-77
2021/06/18 11:46:25;;;;;;;6.13;3.50;;;;;;;;;;5009568;28;20456;-79
2021/06/18 11:49:18;;;;;;;8.98;3.10;;;;;;;;;;5007592;28;20050;-76
2021/06/18 11:51:45;;;;;;;10.27;4.15;;;;;;;;;;5014604;28;20458;-76
2021/06/18 11:54:31;;;;;;;6.85;3.65;;;;;;;;;;5008554;28;20057;-77
2021/06/18 11:57:03;;;;;;;9.93;3.97;;;;;;;;;;5024798;28;20490;-77
2021/06/18 11:59:28;;;;;;;6.28;3.03;;;;;;;;;;4993540;28;20125;-76
2021/06/18 12:01:54;;;;;;;6.57;3.70;;;;;;;;;;5003071;28;20037;-76
2021/06/18 12:04:21;;;;;;;4.03;3.63;;;;;;;;;;5004172;28;20092;-76
2021/06/18 12:06:47;;;;;;;5.25;3.35;;;;;;;;;;5009265;28;20036;-76
2021/06/18 12:09:18;;;;;;;6.90;3.40;;;;;;;;;;5025159;28;20107;-77
2021/06/18 12:11:56;;;;;;;6.38;3.03;;;;;;;;;;5002628;28;20029;-78
2021/06/18 12:14:22;;;;;;;7.07;3.30;;;;;;;;;;5008580;28;20052;-77
2021/06/18 12:16:49;;;;;;;6.55;3.63;;;;;;;;;;5021322;28;20030;-78
2021/06/18 12:19:34;;;;;;;7.07;3.08;;;;;;;;;;5005085;28;20374;-76
2021/06/18 12:22:19;;;;;;;5.78;3.53;;;;;;;;;;5005378;28;20069;-75
2021/06/18 12:24:46;;;;;;;10.07;4.00;;;;;;;;;;5002184;28;20036;-76
2021/06/18 12:27:15;;;;;;;6.20;3.05;;;;;;;;;;5004650;28;20068;-76
2021/06/18 12:29:44;;;;;;;5.68;3.00;;;;;;;;;;5006957;28;20033;-76
2021/06/18 12:32:12;;;;;;;5.60;3.23;;;;;;;;;;5023092;28;20018;-76
2021/06/18 12:34:46;;;;;;;4.53;2.78;;;;;;;;;;5002197;28;20022;-76
2021/06/18 12:37:12;;;;;;;9.15;2.72;;;;;;;;;;5019079;28;20148;-77
2021/06/18 12:39:48;;;;;;;3.58;2.17;;;;;;;;;;5001890;28;20892;-76
2021/06/18 12:42:22;;;;;;;5.95;4.35;;;;;;;;;;4999238;28;20148;-76
2021/06/18 12:45:05;;;;;;;5.95;3.03;;;;;;;;;;5000399;28;20017;-77
2021/06/18 12:47:30;;;;;;;5.97;3.13;;;;;;;;;;5025258;28;20641;-75
2021/06/18 12:49:57;;;;;;;7.40;3.08;;;;;;;;;;5002868;28;20092;-76
2021/06/18 12:52:23;;;;;;;3.75;2.63;;;;;;;;;;5001836;28;20033;-76
2021/06/18 12:55:02;;;;;;;4.40;3.15;;;;;;;;;;5004255;28;20040;-76
2021/06/18 12:57:28;;;;;;;4.88;2.90;;;;;;;;;;5002811;28;20032;-76
2021/06/18 13:00:10;;;;;;;7.28;3.00;;;;;;;;;;5012734;28;20505;-78
2021/06/18 13:02:41;;;;;;;6.80;3.55;;;;;;;;;;5015315;28;20057;-75
2021/06/18 13:05:14;;;;;;;4.53;3.15;;;;;;;;;;4999253;28;20026;-76
2021/06/18 13:07:40;;;;;;;5.10;3.20;;;;;;;;;;5008199;28;20034;-76
2021/06/18 13:10:06;;;;;;;5.13;2.75;;;;;;;;;;5005648;28;20036;-78
2021/06/18 13:12:31;;;;;;;3.78;2.70;;;;;;;;;;5021180;28;20041;-76
2021/06/18 13:14:59;;;;;;;4.68;2.35;;;;;;;;;;5001520;28;20032;-75
2021/06/18 13:17:25;;;;;;;12.07;3.40;;;;;;;;;;5003040;28;20046;-76
2021/06/18 13:19:53;;;;;;;4.35;2.90;;;;;;;;;;5018686;28;20121;-76
2021/06/18 13:22:23;;;;;;;6.93;2.97;;;;;;;;;;4996300;28;20480;-76
2021/06/18 13:24:58;;;;;;;8.38;5.25;;;;;;;;;;5008283;28;20228;-75
2021/06/18 13:27:29;;;;;;;5.65;3.35;;;;;;;;;;5003175;28;20037;-76
2021/06/18 13:30:13;;;;;;;7.35;3.20;;;;;;;;;;4990651;28;20129;-76
2021/06/18 13:32:58;;;;;;;4.30;3.10;;;;;;;;;;5017268;28;20022;-76
2021/06/18 13:35:28;;;;;;;9.07;3.00;;;;;;;;;;4998626;28;20497;-76
2021/06/18 13:38:03;;;;;;;14.65;2.83;;;;;;;;;;5001133;28;20054;-74
2021/06/18 13:40:34;;;;;;;10.15;3.35;;;;;;;;;;5002486;28;20053;-75
2021/06/18 13:43:00;;;;;;;7.53;3.00;;;;;;;;;;5006231;28;20034;-76
2021/06/18 13:45:26;;;;;;;7.18;3.63;;;;;;;;;;4991127;28;20060;-75
2021/06/18 13:47:56;;;;;;;6.68;3.53;;;;;;;;;;5008948;28;20572;-75
2021/06/18 13:50:22;;;;;;;9.45;3.78;;;;;;;;;;5006356;28;20302;-75
2021/06/18 13:52:47;;;;;;;5.85;3.15;;;;;;;;;;5006650;28;20466;-77
2021/06/18 13:55:14;;;;;;;7.03;3.28;;;;;;;;;;5008643;28;20042;-77
2021/06/18 13:57:39;;;;;;;6.40;2.70;;;;;;;;;;5023130;28;20029;-75
2021/06/18 14:00:09;;;;;;;16.48;4.15;;;;;;;;;;5007985;28;20030;-75
2021/06/18 14:02:35;;;;;;;6.47;3.22;;;;;;;;;;5005709;28;20034;-75
2021/06/18 14:05:00;;;;;;;3.70;2.60;;;;;;;;;;5011731;28;20475;-75
2021/06/18 14:07:26;;;;;;;6.00;2.53;;;;;;;;;;4988227;28;20394;-75
2021/06/18 14:09:51;;;;;;;6.47;2.97;;;;;;;;;;4989699;28;20124;-76
2021/06/18 14:12:17;;;;;;;4.88;2.55;;;;;;;;;;4987467;28;20027;-77
2021/06/18 14:17:18;;;;;;;7.20;3.08;;;;;;;;;;4989325;28;20018;-75
2021/06/18 14:19:48;;;;;;;11.75;2.92;;;;;;;;;;4988009;28;20030;-75
2021/06/18 14:22:16;;;;;;;8.27;2.78;;;;;;;;;;5003874;28;20050;-76
2021/06/18 14:24:42;;;;;;;5.75;2.88;;;;;;;;;;4989120;28;20030;-74
2021/06/18 14:27:10;;;;;;;5.90;3.08;;;;;;;;;;4987348;28;20081;-76
2021/06/18 14:29:36;;;;;;;5.28;2.47;;;;;;;;;;4989671;28;20026;-75
2021/06/18 14:32:05;;;;;;;11.05;3.42;;;;;;;;;;4987502;28;20029;-75
2021/06/18 14:34:37;;;;;;;4.25;2.85;;;;;;;;;;4990341;28;20026;-76
2021/06/18 14:37:06;;;;;;;4.95;3.50;;;;;;;;;;4993203;28;20212;-76
2021/06/18 14:39:32;;;;;;;;;;;;;;;;;;4993363;28;20081;-76
2021/06/18 14:41:57;;;;;;;3.42;2.72;;;;;;;;;;4989315;28;20120;-76
2021/06/18 14:44:23;;;;;;;9.35;3.10;;;;;;;;;;4992378;28;20398;-74
2021/06/18 14:46:49;;;;;;;6.35;2.70;;;;;;;;;;4992877;28;20545;-76
2021/06/18 14:49:14;;;;;;;5.18;2.65;;;;;;;;;;4992800;28;20080;-76
2021/06/18 14:51:44;;;;;;;13.93;3.25;;;;;;;;;;4992979;28;20022;-76
2021/06/18 14:54:10;;;;;;;6.25;2.95;;;;;;;;;;4992482;28;20030;-76